sensor_id;sensor_type;location;lat;lon;timestamp;temperature;humidity
70557;DHT22;58107;51.034;3.726;2022-08-19T00:01:57;20.10;92.20
70557;DHT22;58107;51.034;3.726;2022-08-19T00:04:28;20.10;92.30
70557;DHT22;58107;51.034;3.726;2022-08-19T00:06:57;20.10;92.30
70557;DHT22;58107;51.034;3.726;2022-08-19T00:09:25;20.00;92.30
70557;DHT22;58107;51.034;3.726;2022-08-19T00:11:54;20.00;92.40
70557;DHT22;58107;51.034;3.726;2022-08-19T00:14:24;20.00;92.50
70557;DHT22;58107;51.034;3.726;2022-08-19T00:16:52;19.90;92.60
70557;DHT22;58107;51.034;3.726;2022-08-19T00:19:21;19.90;92.50
70557;DHT22;58107;51.034;3.726;2022-08-19T00:21:49;19.80;92.40
70557;DHT22;58107;51.034;3.726;2022-08-19T00:24:17;19.80;92.30
70557;DHT22;58107;51.034;3.726;2022-08-19T00:26:46;19.80;92.50
70557;DHT22;58107;51.034;3.726;2022-08-19T00:29:16;19.70;92.60
70557;DHT22;58107;51.034;3.726;2022-08-19T00:31:45;19.60;92.70
70557;DHT22;58107;51.034;3.726;2022-08-19T00:34:14;19.50;92.90
70557;DHT22;58107;51.034;3.726;2022-08-19T00:36:42;19.60;92.90
70557;DHT22;58107;51.034;3.726;2022-08-19T00:39:12;19.50;93.20
70557;DHT22;58107;51.034;3.726;2022-08-19T00:41:43;19.50;93.40
70557;DHT22;58107;51.034;3.726;2022-08-19T00:44:21;19.40;93.60
70557;DHT22;58107;51.034;3.726;2022-08-19T00:46:50;19.40;93.70
70557;DHT22;58107;51.034;3.726;2022-08-19T00:49:35;19.30;93.60
70557;DHT22;58107;51.034;3.726;2022-08-19T00:52:18;19.30;93.70
70557;DHT22;58107;51.034;3.726;2022-08-19T00:54:46;19.20;93.60
70557;DHT22;58107;51.034;3.726;2022-08-19T00:57:17;19.20;93.50
70557;DHT22;58107;51.034;3.726;2022-08-19T00:59:48;19.20;93.50
70557;DHT22;58107;51.034;3.726;2022-08-19T01:02:17;19.20;93.50
70557;DHT22;58107;51.034;3.726;2022-08-19T01:04:45;19.10;93.50
70557;DHT22;58107;51.034;3.726;2022-08-19T01:07:13;19.10;93.50
70557;DHT22;58107;51.034;3.726;2022-08-19T01:09:43;19.20;93.50
70557;DHT22;58107;51.034;3.726;2022-08-19T01:12:10;19.10;93.50
70557;DHT22;58107;51.034;3.726;2022-08-19T01:14:39;19.10;93.50
70557;DHT22;58107;51.034;3.726;2022-08-19T01:17:12;19.10;93.50
70557;DHT22;58107;51.034;3.726;2022-08-19T01:19:41;19.00;93.50
70557;DHT22;58107;51.034;3.726;2022-08-19T01:22:30;18.90;93.60
70557;DHT22;58107;51.034;3.726;2022-08-19T01:25:19;19.00;93.60
70557;DHT22;58107;51.034;3.726;2022-08-19T01:27:49;19.00;93.70
70557;DHT22;58107;51.034;3.726;2022-08-19T01:30:26;18.90;93.80
70557;DHT22;58107;51.034;3.726;2022-08-19T01:32:54;18.90;93.80
70557;DHT22;58107;51.034;3.726;2022-08-19T01:35:28;18.90;93.90
70557;DHT22;58107;51.034;3.726;2022-08-19T01:37:58;18.90;94.00
70557;DHT22;58107;51.034;3.726;2022-08-19T01:40:29;18.80;94.10
70557;DHT22;58107;51.034;3.726;2022-08-19T01:42:58;18.80;94.20
70557;DHT22;58107;51.034;3.726;2022-08-19T01:45:27;18.70;94.20
70557;DHT22;58107;51.034;3.726;2022-08-19T01:47:57;18.70;94.30
70557;DHT22;58107;51.034;3.726;2022-08-19T01:50:26;18.70;94.30
70557;DHT22;58107;51.034;3.726;2022-08-19T01:52:54;18.70;94.40
70557;DHT22;58107;51.034;3.726;2022-08-19T01:55:23;18.60;94.40
70557;DHT22;58107;51.034;3.726;2022-08-19T01:57:55;18.60;94.50
70557;DHT22;58107;51.034;3.726;2022-08-19T02:00:26;18.60;94.60
70557;DHT22;58107;51.034;3.726;2022-08-19T02:02:54;18.60;94.80
70557;DHT22;58107;51.034;3.726;2022-08-19T02:05:23;18.50;95.00
70557;DHT22;58107;51.034;3.726;2022-08-19T02:07:51;18.40;95.20
70557;DHT22;58107;51.034;3.726;2022-08-19T02:10:20;18.40;95.30
70557;DHT22;58107;51.034;3.726;2022-08-19T02:12:49;18.40;95.40
70557;DHT22;58107;51.034;3.726;2022-08-19T02:15:18;18.30;95.40
70557;DHT22;58107;51.034;3.726;2022-08-19T02:17:47;18.30;95.50
70557;DHT22;58107;51.034;3.726;2022-08-19T02:20:15;18.30;95.70
70557;DHT22;58107;51.034;3.726;2022-08-19T02:22:44;18.30;95.80
70557;DHT22;58107;51.034;3.726;2022-08-19T02:25:13;18.20;95.90
70557;DHT22;58107;51.034;3.726;2022-08-19T02:27:42;18.20;96.00
70557;DHT22;58107;51.034;3.726;2022-08-19T02:30:13;18.20;96.10
70557;DHT22;58107;51.034;3.726;2022-08-19T02:32:42;18.20;96.10
70557;DHT22;58107;51.034;3.726;2022-08-19T02:35:12;18.10;96.20
70557;DHT22;58107;51.034;3.726;2022-08-19T02:37:41;18.10;96.20
70557;DHT22;58107;51.034;3.726;2022-08-19T02:40:29;18.10;96.30
70557;DHT22;58107;51.034;3.726;2022-08-19T02:42:58;18.00;96.40
70557;DHT22;58107;51.034;3.726;2022-08-19T02:45:31;18.00;96.50
70557;DHT22;58107;51.034;3.726;2022-08-19T02:47:56;18.00;96.60
70557;DHT22;58107;51.034;3.726;2022-08-19T02:50:24;18.00;96.60
70557;DHT22;58107;51.034;3.726;2022-08-19T02:52:52;17.90;96.70
70557;DHT22;58107;51.034;3.726;2022-08-19T02:55:20;18.00;96.70
70557;DHT22;58107;51.034;3.726;2022-08-19T02:57:48;18.00;96.70
70557;DHT22;58107;51.034;3.726;2022-08-19T03:00:16;18.00;96.70
70557;DHT22;58107;51.034;3.726;2022-08-19T03:02:44;18.00;96.60
70557;DHT22;58107;51.034;3.726;2022-08-19T03:05:13;18.10;96.60
70557;DHT22;58107;51.034;3.726;2022-08-19T03:07:41;18.10;96.40
70557;DHT22;58107;51.034;3.726;2022-08-19T03:10:09;18.10;96.50
70557;DHT22;58107;51.034;3.726;2022-08-19T03:12:38;18.10;96.50
70557;DHT22;58107;51.034;3.726;2022-08-19T03:15:07;18.10;96.50
70557;DHT22;58107;51.034;3.726;2022-08-19T03:17:35;18.10;96.80
70557;DHT22;58107;51.034;3.726;2022-08-19T03:20:04;18.10;96.50
70557;DHT22;58107;51.034;3.726;2022-08-19T03:22:32;18.10;96.40
70557;DHT22;58107;51.034;3.726;2022-08-19T03:24:59;18.10;96.60
70557;DHT22;58107;51.034;3.726;2022-08-19T03:27:27;18.00;96.60
70557;DHT22;58107;51.034;3.726;2022-08-19T03:29:56;18.00;96.60
70557;DHT22;58107;51.034;3.726;2022-08-19T03:32:23;18.00;96.60
70557;DHT22;58107;51.034;3.726;2022-08-19T03:34:51;18.00;96.70
70557;DHT22;58107;51.034;3.726;2022-08-19T03:37:19;18.00;96.80
70557;DHT22;58107;51.034;3.726;2022-08-19T03:39:47;18.00;96.70
70557;DHT22;58107;51.034;3.726;2022-08-19T03:42:15;18.00;96.70
70557;DHT22;58107;51.034;3.726;2022-08-19T03:44:43;17.90;96.80
70557;DHT22;58107;51.034;3.726;2022-08-19T03:47:12;18.00;96.80
70557;DHT22;58107;51.034;3.726;2022-08-19T03:49:44;18.00;96.70
70557;DHT22;58107;51.034;3.726;2022-08-19T03:52:11;18.00;96.70
70557;DHT22;58107;51.034;3.726;2022-08-19T03:54:39;17.90;96.80
70557;DHT22;58107;51.034;3.726;2022-08-19T03:57:07;18.00;96.80
70557;DHT22;58107;51.034;3.726;2022-08-19T03:59:38;17.90;96.90
70557;DHT22;58107;51.034;3.726;2022-08-19T04:02:09;17.90;97.00
70557;DHT22;58107;51.034;3.726;2022-08-19T04:04:39;17.90;97.10
70557;DHT22;58107;51.034;3.726;2022-08-19T04:07:26;17.90;96.80
70557;DHT22;58107;51.034;3.726;2022-08-19T04:09:54;17.80;97.10
70557;DHT22;58107;51.034;3.726;2022-08-19T04:12:22;17.80;97.20
70557;DHT22;58107;51.034;3.726;2022-08-19T04:14:49;17.80;97.40
70557;DHT22;58107;51.034;3.726;2022-08-19T04:17:17;17.80;97.50
70557;DHT22;58107;51.034;3.726;2022-08-19T04:19:45;17.70;97.40
70557;DHT22;58107;51.034;3.726;2022-08-19T04:22:13;17.80;97.60
70557;DHT22;58107;51.034;3.726;2022-08-19T04:24:40;17.80;97.60
70557;DHT22;58107;51.034;3.726;2022-08-19T04:27:08;17.80;97.60
70557;DHT22;58107;51.034;3.726;2022-08-19T04:29:36;17.70;97.60
70557;DHT22;58107;51.034;3.726;2022-08-19T04:32:06;17.70;97.60
70557;DHT22;58107;51.034;3.726;2022-08-19T04:34:33;17.70;97.70
70557;DHT22;58107;51.034;3.726;2022-08-19T04:37:01;17.70;97.70
70557;DHT22;58107;51.034;3.726;2022-08-19T04:39:31;17.70;97.80
70557;DHT22;58107;51.034;3.726;2022-08-19T04:42:18;17.70;97.70
70557;DHT22;58107;51.034;3.726;2022-08-19T04:45:05;17.80;97.80
70557;DHT22;58107;51.034;3.726;2022-08-19T04:47:33;17.70;97.70
70557;DHT22;58107;51.034;3.726;2022-08-19T04:50:02;17.70;97.90
70557;DHT22;58107;51.034;3.726;2022-08-19T04:52:30;17.70;97.90
70557;DHT22;58107;51.034;3.726;2022-08-19T04:54:58;17.70;97.90
70557;DHT22;58107;51.034;3.726;2022-08-19T04:57:26;17.70;98.00
70557;DHT22;58107;51.034;3.726;2022-08-19T04:59:55;17.70;97.90
70557;DHT22;58107;51.034;3.726;2022-08-19T05:02:23;17.70;97.90
70557;DHT22;58107;51.034;3.726;2022-08-19T05:05:01;17.80;98.00
70557;DHT22;58107;51.034;3.726;2022-08-19T05:07:21;17.70;98.10
70557;DHT22;58107;51.034;3.726;2022-08-19T05:09:49;17.80;98.20
70557;DHT22;58107;51.034;3.726;2022-08-19T05:12:17;17.80;98.30
70557;DHT22;58107;51.034;3.726;2022-08-19T05:14:46;17.80;98.30
70557;DHT22;58107;51.034;3.726;2022-08-19T05:17:15;17.80;98.30
70557;DHT22;58107;51.034;3.726;2022-08-19T05:19:43;17.80;98.30
70557;DHT22;58107;51.034;3.726;2022-08-19T05:22:28;17.80;98.40
70557;DHT22;58107;51.034;3.726;2022-08-19T05:25:00;17.90;98.40
70557;DHT22;58107;51.034;3.726;2022-08-19T05:27:28;17.90;98.40
70557;DHT22;58107;51.034;3.726;2022-08-19T05:29:56;18.00;98.40
70557;DHT22;58107;51.034;3.726;2022-08-19T05:32:23;18.00;98.50
70557;DHT22;58107;51.034;3.726;2022-08-19T05:34:51;18.00;98.60
70557;DHT22;58107;51.034;3.726;2022-08-19T05:37:19;18.10;98.50
70557;DHT22;58107;51.034;3.726;2022-08-19T05:39:47;18.10;98.40
70557;DHT22;58107;51.034;3.726;2022-08-19T05:42:16;18.20;98.40
70557;DHT22;58107;51.034;3.726;2022-08-19T05:45:03;18.10;98.50
70557;DHT22;58107;51.034;3.726;2022-08-19T05:47:30;18.20;98.60
70557;DHT22;58107;51.034;3.726;2022-08-19T05:49:58;18.20;98.60
70557;DHT22;58107;51.034;3.726;2022-08-19T05:52:27;18.20;98.70
70557;DHT22;58107;51.034;3.726;2022-08-19T05:54:55;18.30;98.80
70557;DHT22;58107;51.034;3.726;2022-08-19T05:57:24;18.30;98.90
70557;DHT22;58107;51.034;3.726;2022-08-19T05:59:52;18.40;98.90
70557;DHT22;58107;51.034;3.726;2022-08-19T06:02:20;18.40;98.90
70557;DHT22;58107;51.034;3.726;2022-08-19T06:04:47;18.50;98.90
70557;DHT22;58107;51.034;3.726;2022-08-19T06:07:16;18.50;98.90
70557;DHT22;58107;51.034;3.726;2022-08-19T06:09:43;18.50;98.90
70557;DHT22;58107;51.034;3.726;2022-08-19T06:12:11;18.50;99.10
70557;DHT22;58107;51.034;3.726;2022-08-19T06:14:39;18.50;99.20
70557;DHT22;58107;51.034;3.726;2022-08-19T06:17:08;18.60;99.40
70557;DHT22;58107;51.034;3.726;2022-08-19T06:19:35;18.60;99.40
70557;DHT22;58107;51.034;3.726;2022-08-19T06:22:04;18.60;99.40
70557;DHT22;58107;51.034;3.726;2022-08-19T06:24:32;18.70;99.30
70557;DHT22;58107;51.034;3.726;2022-08-19T06:27:03;18.80;99.20
70557;DHT22;58107;51.034;3.726;2022-08-19T06:29:33;18.80;99.00
70557;DHT22;58107;51.034;3.726;2022-08-19T06:32:02;18.90;98.80
70557;DHT22;58107;51.034;3.726;2022-08-19T06:34:32;19.00;98.70
70557;DHT22;58107;51.034;3.726;2022-08-19T06:37:01;19.10;98.50
70557;DHT22;58107;51.034;3.726;2022-08-19T06:39:34;19.10;98.50
70557;DHT22;58107;51.034;3.726;2022-08-19T06:42:02;19.20;98.50
70557;DHT22;58107;51.034;3.726;2022-08-19T06:44:34;19.10;98.50
70557;DHT22;58107;51.034;3.726;2022-08-19T06:47:07;19.20;98.50
70557;DHT22;58107;51.034;3.726;2022-08-19T06:49:36;19.20;98.60
70557;DHT22;58107;51.034;3.726;2022-08-19T06:52:04;19.30;98.50
70557;DHT22;58107;51.034;3.726;2022-08-19T06:54:32;19.30;98.60
70557;DHT22;58107;51.034;3.726;2022-08-19T06:57:00;19.40;98.50
70557;DHT22;58107;51.034;3.726;2022-08-19T06:59:29;19.40;98.60
70557;DHT22;58107;51.034;3.726;2022-08-19T07:02:02;19.40;98.70
70557;DHT22;58107;51.034;3.726;2022-08-19T07:04:31;19.40;98.80
70557;DHT22;58107;51.034;3.726;2022-08-19T07:07:06;19.40;98.90
70557;DHT22;58107;51.034;3.726;2022-08-19T07:09:32;19.40;98.90
70557;DHT22;58107;51.034;3.726;2022-08-19T07:11:59;19.50;98.90
70557;DHT22;58107;51.034;3.726;2022-08-19T07:14:28;19.60;98.90
70557;DHT22;58107;51.034;3.726;2022-08-19T07:16:56;19.50;99.00
70557;DHT22;58107;51.034;3.726;2022-08-19T07:19:26;19.40;99.10
70557;DHT22;58107;51.034;3.726;2022-08-19T07:21:53;19.50;99.10
70557;DHT22;58107;51.034;3.726;2022-08-19T07:24:23;19.50;99.00
70557;DHT22;58107;51.034;3.726;2022-08-19T07:26:52;19.60;99.00
70557;DHT22;58107;51.034;3.726;2022-08-19T07:29:22;19.60;98.90
70557;DHT22;58107;51.034;3.726;2022-08-19T07:31:51;19.70;98.80
70557;DHT22;58107;51.034;3.726;2022-08-19T07:34:40;19.80;98.70
70557;DHT22;58107;51.034;3.726;2022-08-19T07:37:07;19.80;98.70
70557;DHT22;58107;51.034;3.726;2022-08-19T07:39:37;19.80;98.70
70557;DHT22;58107;51.034;3.726;2022-08-19T07:42:07;19.80;98.60
70557;DHT22;58107;51.034;3.726;2022-08-19T07:44:37;19.90;98.50
70557;DHT22;58107;51.034;3.726;2022-08-19T07:47:05;19.90;98.50
70557;DHT22;58107;51.034;3.726;2022-08-19T07:49:34;20.00;98.40
70557;DHT22;58107;51.034;3.726;2022-08-19T07:52:04;20.00;98.30
70557;DHT22;58107;51.034;3.726;2022-08-19T07:54:33;20.00;98.40
70557;DHT22;58107;51.034;3.726;2022-08-19T07:57:02;20.00;98.30
70557;DHT22;58107;51.034;3.726;2022-08-19T07:59:30;20.10;98.30
70557;DHT22;58107;51.034;3.726;2022-08-19T08:01:58;20.00;98.10
70557;DHT22;58107;51.034;3.726;2022-08-19T08:04:28;20.10;98.20
70557;DHT22;58107;51.034;3.726;2022-08-19T08:07:14;20.10;98.20
70557;DHT22;58107;51.034;3.726;2022-08-19T08:10:00;20.10;98.10
70557;DHT22;58107;51.034;3.726;2022-08-19T08:12:36;20.10;98.20
70557;DHT22;58107;51.034;3.726;2022-08-19T08:15:04;20.10;98.30
70557;DHT22;58107;51.034;3.726;2022-08-19T08:17:31;20.10;98.20
70557;DHT22;58107;51.034;3.726;2022-08-19T08:19:59;20.20;98.30
70557;DHT22;58107;51.034;3.726;2022-08-19T08:22:27;20.20;98.20
70557;DHT22;58107;51.034;3.726;2022-08-19T08:25:16;20.20;98.10
70557;DHT22;58107;51.034;3.726;2022-08-19T08:27:45;20.20;98.10
70557;DHT22;58107;51.034;3.726;2022-08-19T08:30:21;20.20;98.10
70557;DHT22;58107;51.034;3.726;2022-08-19T08:32:50;20.20;98.20
70557;DHT22;58107;51.034;3.726;2022-08-19T08:35:20;20.20;98.20
70557;DHT22;58107;51.034;3.726;2022-08-19T08:37:49;20.20;98.10
70557;DHT22;58107;51.034;3.726;2022-08-19T08:40:30;20.30;98.10
70557;DHT22;58107;51.034;3.726;2022-08-19T08:43:13;20.30;98.00
70557;DHT22;58107;51.034;3.726;2022-08-19T08:45:33;20.30;98.00
70557;DHT22;58107;51.034;3.726;2022-08-19T08:50:35;20.50;97.70
70557;DHT22;58107;51.034;3.726;2022-08-19T08:53:05;20.50;97.60
70557;DHT22;58107;51.034;3.726;2022-08-19T08:55:34;20.60;97.50
70557;DHT22;58107;51.034;3.726;2022-08-19T08:58:08;20.60;97.40
70557;DHT22;58107;51.034;3.726;2022-08-19T09:00:38;20.60;97.30
70557;DHT22;58107;51.034;3.726;2022-08-19T09:03:21;20.60;97.70
70557;DHT22;58107;51.034;3.726;2022-08-19T09:06:01;20.70;97.30
70557;DHT22;58107;51.034;3.726;2022-08-19T09:08:48;20.70;97.00
70557;DHT22;58107;51.034;3.726;2022-08-19T09:12:02;20.80;96.90
70557;DHT22;58107;51.034;3.726;2022-08-19T09:16:54;20.90;97.00
70557;DHT22;58107;51.034;3.726;2022-08-19T09:19:52;20.80;96.70
70557;DHT22;58107;51.034;3.726;2022-08-19T09:22:16;20.90;96.70
70557;DHT22;58107;51.034;3.726;2022-08-19T09:24:43;20.90;96.30
70557;DHT22;58107;51.034;3.726;2022-08-19T09:27:11;21.00;96.20
70557;DHT22;58107;51.034;3.726;2022-08-19T09:29:38;21.20;95.80
70557;DHT22;58107;51.034;3.726;2022-08-19T09:32:06;21.30;95.40
70557;DHT22;58107;51.034;3.726;2022-08-19T09:34:33;21.40;95.20
70557;DHT22;58107;51.034;3.726;2022-08-19T09:37:01;21.40;95.00
70557;DHT22;58107;51.034;3.726;2022-08-19T09:39:29;21.50;95.00
70557;DHT22;58107;51.034;3.726;2022-08-19T09:41:57;21.60;94.50
70557;DHT22;58107;51.034;3.726;2022-08-19T09:44:24;21.70;94.30
70557;DHT22;58107;51.034;3.726;2022-08-19T09:46:52;21.70;94.10
70557;DHT22;58107;51.034;3.726;2022-08-19T09:49:20;21.70;94.20
70557;DHT22;58107;51.034;3.726;2022-08-19T09:51:52;21.90;93.60
70557;DHT22;58107;51.034;3.726;2022-08-19T09:54:23;22.00;93.50
70557;DHT22;58107;51.034;3.726;2022-08-19T09:56:57;22.20;93.00
70557;DHT22;58107;51.034;3.726;2022-08-19T09:59:21;22.20;92.40
70557;DHT22;58107;51.034;3.726;2022-08-19T10:01:49;22.10;92.60
70557;DHT22;58107;51.034;3.726;2022-08-19T10:04:17;22.10;92.60
70557;DHT22;58107;51.034;3.726;2022-08-19T10:06:49;22.00;92.50
70557;DHT22;58107;51.034;3.726;2022-08-19T10:09:18;22.00;92.90
70557;DHT22;58107;51.034;3.726;2022-08-19T10:11:45;21.90;93.00
70557;DHT22;58107;51.034;3.726;2022-08-19T10:14:16;21.80;93.10
70557;DHT22;58107;51.034;3.726;2022-08-19T10:16:45;21.90;93.00
70557;DHT22;58107;51.034;3.726;2022-08-19T10:19:13;22.00;92.80
70557;DHT22;58107;51.034;3.726;2022-08-19T10:21:40;22.00;92.60
70557;DHT22;58107;51.034;3.726;2022-08-19T10:24:08;22.10;92.40
70557;DHT22;58107;51.034;3.726;2022-08-19T10:26:37;22.10;92.40
70557;DHT22;58107;51.034;3.726;2022-08-19T10:29:07;22.20;92.20
70557;DHT22;58107;51.034;3.726;2022-08-19T10:31:36;22.30;92.00
70557;DHT22;58107;51.034;3.726;2022-08-19T10:34:04;22.40;91.90
70557;DHT22;58107;51.034;3.726;2022-08-19T10:36:34;22.50;91.50
70557;DHT22;58107;51.034;3.726;2022-08-19T10:39:05;22.50;91.50
70557;DHT22;58107;51.034;3.726;2022-08-19T10:41:34;22.70;91.20
70557;DHT22;58107;51.034;3.726;2022-08-19T10:44:08;22.70;91.00
70557;DHT22;58107;51.034;3.726;2022-08-19T10:46:38;22.60;91.30
70557;DHT22;58107;51.034;3.726;2022-08-19T10:49:09;22.40;91.20
70557;DHT22;58107;51.034;3.726;2022-08-19T10:51:39;22.40;91.20
70557;DHT22;58107;51.034;3.726;2022-08-19T10:54:25;22.40;91.00
70557;DHT22;58107;51.034;3.726;2022-08-19T10:57:10;22.40;91.30
70557;DHT22;58107;51.034;3.726;2022-08-19T10:59:38;22.30;91.30
70557;DHT22;58107;51.034;3.726;2022-08-19T11:02:08;22.30;91.30
70557;DHT22;58107;51.034;3.726;2022-08-19T11:04:40;22.30;91.50
70557;DHT22;58107;51.034;3.726;2022-08-19T11:07:08;22.30;91.30
70557;DHT22;58107;51.034;3.726;2022-08-19T11:09:39;22.30;91.30
70557;DHT22;58107;51.034;3.726;2022-08-19T11:12:08;22.40;91.40
70557;DHT22;58107;51.034;3.726;2022-08-19T11:14:36;22.50;91.20
70557;DHT22;58107;51.034;3.726;2022-08-19T11:17:05;22.50;91.20
70557;DHT22;58107;51.034;3.726;2022-08-19T11:19:34;22.50;91.10
70557;DHT22;58107;51.034;3.726;2022-08-19T11:22:02;22.50;91.00
70557;DHT22;58107;51.034;3.726;2022-08-19T11:24:30;22.40;91.10
70557;DHT22;58107;51.034;3.726;2022-08-19T11:27:02;22.30;91.00
70557;DHT22;58107;51.034;3.726;2022-08-19T11:29:31;22.30;91.30
70557;DHT22;58107;51.034;3.726;2022-08-19T11:31:59;22.40;91.40
70557;DHT22;58107;51.034;3.726;2022-08-19T11:34:28;22.40;91.30
70557;DHT22;58107;51.034;3.726;2022-08-19T11:36:56;22.40;91.20
70557;DHT22;58107;51.034;3.726;2022-08-19T11:39:26;22.50;90.90
70557;DHT22;58107;51.034;3.726;2022-08-19T11:41:54;22.50;90.70
70557;DHT22;58107;51.034;3.726;2022-08-19T11:44:22;22.60;90.70
70557;DHT22;58107;51.034;3.726;2022-08-19T11:46:49;22.70;90.50
70557;DHT22;58107;51.034;3.726;2022-08-19T11:49:19;22.70;90.40
70557;DHT22;58107;51.034;3.726;2022-08-19T11:51:48;22.80;90.20
70557;DHT22;58107;51.034;3.726;2022-08-19T11:54:17;22.70;90.30
70557;DHT22;58107;51.034;3.726;2022-08-19T11:56:45;22.80;90.30
70557;DHT22;58107;51.034;3.726;2022-08-19T11:59:15;22.70;90.20
70557;DHT22;58107;51.034;3.726;2022-08-19T12:01:42;22.80;90.30
70557;DHT22;58107;51.034;3.726;2022-08-19T12:04:10;22.80;90.50
70557;DHT22;58107;51.034;3.726;2022-08-19T12:06:40;23.10;89.20
70557;DHT22;58107;51.034;3.726;2022-08-19T12:09:09;23.10;88.60
70557;DHT22;58107;51.034;3.726;2022-08-19T12:11:38;23.00;89.00
70557;DHT22;58107;51.034;3.726;2022-08-19T12:14:09;22.90;89.50
70557;DHT22;58107;51.034;3.726;2022-08-19T12:16:36;22.90;89.50
70557;DHT22;58107;51.034;3.726;2022-08-19T12:19:05;23.00;89.10
70557;DHT22;58107;51.034;3.726;2022-08-19T12:21:34;23.20;88.50
70557;DHT22;58107;51.034;3.726;2022-08-19T12:24:03;23.20;88.10
70557;DHT22;58107;51.034;3.726;2022-08-19T12:26:31;23.20;87.90
70557;DHT22;58107;51.034;3.726;2022-08-19T12:28:59;23.10;88.40
70557;DHT22;58107;51.034;3.726;2022-08-19T12:31:28;23.10;88.50
70557;DHT22;58107;51.034;3.726;2022-08-19T12:33:56;23.10;88.40
70557;DHT22;58107;51.034;3.726;2022-08-19T12:36:24;23.10;88.60
70557;DHT22;58107;51.034;3.726;2022-08-19T12:38:52;23.00;89.20
70557;DHT22;58107;51.034;3.726;2022-08-19T12:41:21;22.90;90.40
70557;DHT22;58107;51.034;3.726;2022-08-19T12:43:49;22.70;91.60
70557;DHT22;58107;51.034;3.726;2022-08-19T12:46:18;22.60;92.50
70557;DHT22;58107;51.034;3.726;2022-08-19T12:48:46;22.60;92.70
70557;DHT22;58107;51.034;3.726;2022-08-19T12:51:15;22.70;92.90
70557;DHT22;58107;51.034;3.726;2022-08-19T12:53:44;23.00;92.30
70557;DHT22;58107;51.034;3.726;2022-08-19T12:56:13;23.30;91.50
70557;DHT22;58107;51.034;3.726;2022-08-19T12:58:41;23.50;90.80
70557;DHT22;58107;51.034;3.726;2022-08-19T13:01:12;23.60;90.70
70557;DHT22;58107;51.034;3.726;2022-08-19T13:03:40;23.90;89.80
70557;DHT22;58107;51.034;3.726;2022-08-19T13:06:08;24.00;87.90
70557;DHT22;58107;51.034;3.726;2022-08-19T13:08:36;24.00;87.40
70557;DHT22;58107;51.034;3.726;2022-08-19T13:11:16;23.90;88.30
70557;DHT22;58107;51.034;3.726;2022-08-19T13:13:47;24.10;87.60
70557;DHT22;58107;51.034;3.726;2022-08-19T13:16:15;24.70;85.90
70557;DHT22;58107;51.034;3.726;2022-08-19T13:19:02;24.70;84.70
70557;DHT22;58107;51.034;3.726;2022-08-19T13:21:31;23.90;88.60
70557;DHT22;58107;51.034;3.726;2022-08-19T13:23:59;21.90;98.90
70557;DHT22;58107;51.034;3.726;2022-08-19T13:26:27;21.20;99.90
70557;DHT22;58107;51.034;3.726;2022-08-19T13:28:55;21.10;99.90
70557;DHT22;58107;51.034;3.726;2022-08-19T13:31:41;20.70;99.90
70557;DHT22;58107;51.034;3.726;2022-08-19T13:34:32;20.60;99.90
70557;DHT22;58107;51.034;3.726;2022-08-19T13:37:02;20.50;99.90
70557;DHT22;58107;51.034;3.726;2022-08-19T13:39:32;20.50;99.90
70557;DHT22;58107;51.034;3.726;2022-08-19T13:42:01;20.50;99.90
70557;DHT22;58107;51.034;3.726;2022-08-19T13:44:30;20.60;99.90
70557;DHT22;58107;51.034;3.726;2022-08-19T13:47:04;20.80;99.90
70557;DHT22;58107;51.034;3.726;2022-08-19T13:49:36;20.90;99.90
70557;DHT22;58107;51.034;3.726;2022-08-19T13:52:05;21.00;99.90
70557;DHT22;58107;51.034;3.726;2022-08-19T13:54:33;21.20;99.90
70557;DHT22;58107;51.034;3.726;2022-08-19T13:57:00;21.60;99.90
70557;DHT22;58107;51.034;3.726;2022-08-19T13:59:28;22.00;99.90
70557;DHT22;58107;51.034;3.726;2022-08-19T14:02:00;22.20;99.90
70557;DHT22;58107;51.034;3.726;2022-08-19T14:04:28;22.20;98.70
70557;DHT22;58107;51.034;3.726;2022-08-19T14:06:56;22.40;99.50
70557;DHT22;58107;51.034;3.726;2022-08-19T14:09:23;22.60;99.10
70557;DHT22;58107;51.034;3.726;2022-08-19T14:11:51;22.90;97.80
70557;DHT22;58107;51.034;3.726;2022-08-19T14:14:19;23.50;96.30
70557;DHT22;58107;51.034;3.726;2022-08-19T14:16:47;24.30;94.30
70557;DHT22;58107;51.034;3.726;2022-08-19T14:19:14;25.70;91.10
70557;DHT22;58107;51.034;3.726;2022-08-19T14:21:42;26.20;88.00
70557;DHT22;58107;51.034;3.726;2022-08-19T14:24:10;25.20;90.20
70557;DHT22;58107;51.034;3.726;2022-08-19T14:26:38;24.40;92.40
70557;DHT22;58107;51.034;3.726;2022-08-19T14:29:06;24.30;92.50
70557;DHT22;58107;51.034;3.726;2022-08-19T14:31:33;24.40;92.60
70557;DHT22;58107;51.034;3.726;2022-08-19T14:34:01;24.60;92.60
70557;DHT22;58107;51.034;3.726;2022-08-19T14:36:29;24.40;92.60
70557;DHT22;58107;51.034;3.726;2022-08-19T14:38:57;24.20;92.80
70557;DHT22;58107;51.034;3.726;2022-08-19T14:41:27;24.10;93.30
70557;DHT22;58107;51.034;3.726;2022-08-19T14:43:56;24.20;93.50
70557;DHT22;58107;51.034;3.726;2022-08-19T14:46:26;24.70;92.20
70557;DHT22;58107;51.034;3.726;2022-08-19T14:48:55;25.80;89.30
70557;DHT22;58107;51.034;3.726;2022-08-19T14:51:23;25.90;87.70
70557;DHT22;58107;51.034;3.726;2022-08-19T14:53:53;25.60;87.70
70557;DHT22;58107;51.034;3.726;2022-08-19T14:56:23;26.40;88.20
70557;DHT22;58107;51.034;3.726;2022-08-19T14:58:51;27.50;82.10
70557;DHT22;58107;51.034;3.726;2022-08-19T15:01:21;28.50;74.40
70557;DHT22;58107;51.034;3.726;2022-08-19T15:03:50;29.50;71.40
70557;DHT22;58107;51.034;3.726;2022-08-19T15:06:24;32.80;60.10
70557;DHT22;58107;51.034;3.726;2022-08-19T15:08:53;33.70;54.30
70557;DHT22;58107;51.034;3.726;2022-08-19T15:11:23;33.70;52.30
70557;DHT22;58107;51.034;3.726;2022-08-19T15:13:58;37.00;48.20
70557;DHT22;58107;51.034;3.726;2022-08-19T15:16:23;35.60;45.70
70557;DHT22;58107;51.034;3.726;2022-08-19T15:18:54;33.60;49.30
70557;DHT22;58107;51.034;3.726;2022-08-19T15:21:24;31.00;57.30
70557;DHT22;58107;51.034;3.726;2022-08-19T15:23:52;31.10;57.60
70557;DHT22;58107;51.034;3.726;2022-08-19T15:26:21;30.20;59.90
70557;DHT22;58107;51.034;3.726;2022-08-19T15:28:49;28.90;65.10
70557;DHT22;58107;51.034;3.726;2022-08-19T15:31:19;29.70;64.50
70557;DHT22;58107;51.034;3.726;2022-08-19T15:33:49;30.70;59.60
70557;DHT22;58107;51.034;3.726;2022-08-19T15:36:17;30.40;59.50
70557;DHT22;58107;51.034;3.726;2022-08-19T15:38:44;28.90;64.70
70557;DHT22;58107;51.034;3.726;2022-08-19T15:41:21;28.40;68.40
70557;DHT22;58107;51.034;3.726;2022-08-19T15:43:58;28.50;68.00
70557;DHT22;58107;51.034;3.726;2022-08-19T15:46:28;28.40;68.30
70557;DHT22;58107;51.034;3.726;2022-08-19T15:48:57;28.10;68.80
70557;DHT22;58107;51.034;3.726;2022-08-19T15:51:26;27.40;71.60
70557;DHT22;58107;51.034;3.726;2022-08-19T15:53:58;27.30;73.80